Latest Coastal Weather Observations for Kingfish B

IDV60701

Issued at 11:02 am EDT Monday 18 February 2019 (issued every 10 minutes, with the page automatically refreshed every 10 minutes)

About coastal observations | Map of coastal stations | Coastal observations for VIC | Marine services | Other Formats
Station Details ID: 400139 Name: KINGFISH B (PLATFORM) Lat: -38.60 Lon: 148.19 Height: 31.4 m
Data from the previous 72 hours. | See also: Recent months for locations in Victoria
Date/Time
EDT
Wind Sea
Height
m
Swell Vis
km
Cloud Weather Temp
°C
Press
hPa
Rain since
9am
mm
Dir  Spd
kts
Gust
kts
Height
m
Period
s
Dir
18/11:00am NNW 11 14 - - - - - - - 23.4 1004.2 -
18/10:50am NNW 12 15 - - - - - - - 23.4 1004.1 -
18/10:40am NNW 12 14 - - - - - - - 23.5 1004.1 -
18/10:30am NNW 13 16 - - - - - - - 23.4 1004.2 -
18/10:20am N 12 14 - - - - - - - 23.7 1003.9 -
18/10:10am N 12 14 - - - - - - - 23.4 1003.9 -
18/10:00am N 12 14 - - - - - - - 23.5 1004.1 -
18/09:50am N 13 14 - - - - - - - 23.8 1004.1 -
18/09:40am N 12 14 - - - - - - - 23.9 1004.1 -
18/09:30am N 13 14 - - - - - - - 23.4 1004.3 -
18/09:20am N 12 13 - - - - - - - 23.5 1004.3 -
18/09:10am N 11 12 - - - - - - - 23.3 1004.3 -
18/08:40am N 10 12 - - - - - - - 21.7 1004.5 -
18/08:30am NNE 11 12 - - - - - - - 21.3 1004.4 -
18/08:20am NNE 11 12 - - - - - - - 20.9 1004.4 -
18/08:10am NNE 10 12 - - - - - - - 20.6 1004.5 -
18/08:00am N 10 11 - - - - - - - 20.7 1004.6 -
18/07:50am NNE 11 13 - - - - - - - 20.8 1004.5 -
18/07:40am N 7 10 - - - - - - - 20.4 1004.9 -
18/07:30am NNE 8 12 - - - - - - - 20.3 1004.7 -
18/07:20am NNE 12 14 - - - - - - - 20.4 1004.3 -
18/07:10am NNE 14 17 - - - - - - - 20.4 1004.3 -
18/07:00am NE 14 15 - - - - - - - 20.3 1004.4 -
18/06:50am NE 14 15 - - - - - - - 20.4 1004.5 -
18/06:40am NE 14 15 - - - - - - - 20.3 1004.4 -
18/06:30am NE 14 15 - - - - - - - 20.3 1004.4 -
18/06:20am NE 13 15 - - - - - - - 20.3 1004.6 -
18/06:10am NE 16 16 - - - - - - - 20.3 1004.6 -
18/06:00am NE 14 16 - - - - - - - 20.3 1004.9 -
18/05:50am NE 12 13 - - - - - - - 20.3 1005.1 -
18/05:40am NE 12 13 - - - - - - - 20.3 1005.1 -
18/05:30am NE 13 14 - - - - - - - 20.3 1005.2 -
18/05:20am NE 12 14 - - - - - - - 20.3 1005.5 -
18/05:10am NE 13 15 - - - - - - - 20.3 1005.4 -
18/05:00am NE 14 15 - - - - - - - 20.4 1005.6 -
18/04:50am NE 13 15 - - - - - - - 20.3 1005.6 -
18/04:40am NE 14 15 - - - - - - - 20.3 1005.7 -
18/04:30am NE 14 15 - - - - - - - 20.3 1005.7 -
18/04:20am NE 14 16 - - - - - - - 20.3 1006.0 -
18/04:10am NE 13 15 - - - - - - - 20.4 1006.2 -
18/04:00am ENE 13 15 - - - - - - - 20.3 1006.3 -
18/03:50am NE 13 14 - - - - - - - 20.3 1006.6 -
18/03:40am NE 11 13 - - - - - - - 20.4 1006.9 -
18/03:30am NE 10 11 - - - - - - - 20.4 1007.1 -
18/03:20am NE 9 11 - - - - - - - 20.3 1007.4 -
18/03:10am NE 9 11 - - - - - - - 20.3 1007.6 -
18/03:00am NE 10 11 - - - - - - - 20.3 1007.7 -
18/02:50am NE 10 11 - - - - - - - 20.3 1007.8 -
18/02:40am NE 10 12 - - - - - - - 20.3 1007.8 -
18/02:20am NE 10 11 - - - - - - - 20.3 1008.1 -
18/02:10am NE 9 10 - - - - - - - 20.2 1008.3 -
18/02:00am NE 8 9 - - - - - - - 20.1 1008.6 -
18/01:50am NE 8 9 - - - - - - - 20.1 1008.7 -
18/01:40am NE 9 11 - - - - - - - 20.1 1008.8 -
18/01:30am NNE 9 10 - - - - - - - 20.1 1008.8 -
18/01:20am NE 10 11 - - - - - - - 20.0 1008.7 -
18/01:00am NNE 11 12 - - - - - - - 20.0 1008.9 -
18/12:50am NNE 10 11 - - - - - - - 20.0 1009.0 -
18/12:40am NNE 10 11 - - - - - - - 20.0 1009.1 -
18/12:30am NNE 11 13 - - - - - - - 20.0 1009.1 -
18/12:20am NNE 10 12 - - - - - - - 20.0 1009.3 -
18/12:10am NNE 11 13 - - - - - - - 20.0 1009.5 -
18/12:00am NNE 11 14 - - - - - - - 20.0 1009.6 -
 
Date/Time
EDT
Wind Sea
Height
m
Swell Vis
km
Cloud Weather Temp
°C
Press
hPa
Rain since
9am
mm
Dir  Spd
kts
Gust
kts
Height
m
Period
s
Dir
17/11:50pm NNE 14 16 - - - - - - - 20.0 1009.5 -
17/11:40pm NNE 13 15 - - - - - - - 19.9 1009.7 -
17/11:30pm NNE 13 15 - - - - - - - 19.8 1010.1 -
17/11:20pm NNE 12 14 - - - - - - - 19.8 1010.2 -
17/11:10pm NNE 13 14 - - - - - - - 19.7 1010.4 -
17/11:00pm NNE 13 15 - - - - - - - 19.7 1010.5 -
17/10:20pm NNE 10 12 - - - - - - - 19.7 1010.5 -
17/10:10pm NE 11 12 - - - - - - - 19.7 1010.3 -
17/10:00pm NNE 11 12 - - - - - - - 19.7 1010.3 -
17/09:50pm NNE 12 13 - - - - - - - 19.6 1010.3 -
17/09:40pm NNE 11 13 - - - - - - - 19.6 1010.2 -
17/09:30pm NNE 10 12 - - - - - - - 19.6 1010.2 -
17/09:20pm NNE 10 11 - - - - - - - 19.6 1010.4 -
17/09:10pm NNE 8 10 - - - - - - - 19.7 1010.5 -
17/09:00pm NE 7 8 - - - - - - - 19.7 1010.5 -
17/07:20pm SSW 2 3 - - - - - - - 19.8 1010.7 -
17/05:50pm ESE 2 4 - - - - - - - 19.4 1010.6 -
17/05:40pm SE 2 4 - - - - - - - 19.3 1010.6 -
17/05:30pm SSE 3 4 - - - - - - - 19.3 1010.7 -
17/05:20pm SSE 2 4 - - - - - - - 19.6 1010.8 -
17/05:10pm S 3 4 - - - - - - - 19.8 1010.9 -
17/03:20pm S 2 4 - - - - - - - 19.8 1011.6 -
17/03:10pm CALM 0 2 - - - - - - - 19.8 1011.6 -
17/03:00pm SSE 1 3 - - - - - - - 20.1 1011.7 -
17/02:50pm SSW 1 3 - - - - - - - 20.7 1011.9 -
17/02:30pm SSW 1 3 - - - - - - - 20.0 1012.0 -
17/02:20pm S 2 4 - - - - - - - 20.2 1012.0 -
17/02:10pm SSW 1 3 - - - - - - - 20.4 1012.0 -
17/02:00pm CALM 0 2 - - - - - - - 20.6 1012.0 -
17/01:50pm SSW 1 2 - - - - - - - 21.2 1012.1 -
17/01:40pm W 1 3 - - - - - - - 21.4 1012.2 -
17/01:30pm WSW 1 2 - - - - - - - 21.3 1012.4 -
17/01:20pm SW 2 4 - - - - - - - 21.8 1012.6 -
17/01:00pm SW 1 3 - - - - - - - 22.0 1012.6 -
17/12:50pm SW 1 2 - - - - - - - 21.5 1012.7 -
17/12:10pm NW 1 2 - - - - - - - 20.6 1013.0 -
17/12:00pm CALM 0 1 - - - - - - - 20.4 1013.0 -
17/11:50am CALM 0 2 - - - - - - - 20.9 1013.0 -
17/11:40am WSW 2 5 - - - - - - - 20.8 1013.0 -
17/11:30am WSW 2 4 - - - - - - - 20.7 1013.0 -
17/11:20am WSW 2 3 - - - - - - - 20.7 1013.1 -
17/11:10am SSW 2 3 - - - - - - - 21.0 1013.1 -
17/11:00am WSW 2 4 - - - - - - - 21.2 1013.1 -
17/10:50am WSW 2 4 - - - - - - - 20.9 1013.1 -
17/10:40am WSW 3 4 - - - - - - - 20.8 1013.1 -
17/10:30am WSW 2 4 - - - - - - - 20.6 1013.1 -
17/10:20am SW 2 4 - - - - - - - 20.4 1013.0 -
17/10:10am WSW 2 4 - - - - - - - 19.9 1013.0 -
17/10:00am WSW 2 3 - - - - - - - 19.5 1013.2 -
17/09:50am WSW 3 4 - - - - - - - 19.5 1013.3 -
17/09:40am WSW 3 5 - - - - - - - 19.2 1013.3 -
17/09:30am WSW 4 5 - - - - - - - 19.2 1013.2 -
17/09:10am SW 3 4 - - - - - - - 18.7 1013.1 -
17/08:50am SW 3 5 - - - - - - - 18.4 1013.0 -
17/08:40am SW 4 5 - - - - - - - 18.3 1013.1 -
17/08:30am SW 4 6 - - - - - - - 18.2 1013.0 -
17/08:10am WSW 4 5 - - - - - - - 17.9 1012.8 -
17/08:00am WSW 5 6 - - - - - - - 17.9 1012.7 -
17/07:50am WSW 5 6 - - - - - - - 17.8 1012.7 -
17/07:40am WSW 5 7 - - - - - - - 17.9 1012.7 -
17/07:30am WSW 5 6 - - - - - - - 17.8 1012.6 -
17/07:20am WSW 5 5 - - - - - - - 17.8 1012.5 -
17/05:10am SW 8 10 - - - - - - - 18.2 1012.8 -
17/04:40am SW 8 10 - - - - - - - 18.3 1013.1 -
17/04:20am SW 10 11 - - - - - - - 18.4 1013.2 -
17/04:10am SW 10 11 - - - - - - - 18.5 1013.4 -
17/04:00am SW 10 12 - - - - - - - 18.6 1013.4 -
17/03:50am SW 10 11 - - - - - - - 18.6 1013.4 -
17/03:40am SW 9 11 - - - - - - - 18.7 1013.5 -
17/03:30am SW 9 11 - - - - - - - 18.7 1013.5 -
17/03:20am SW 10 12 - - - - - - - 18.7 1013.4 -
17/03:10am SW 11 12 - - - - - - - 18.7 1013.5 -
17/03:00am SW 11 14 - - - - - - - 18.7 1013.6 -
17/02:40am SW 13 15 - - - - - - - 18.9 1013.7 -
17/02:10am SW 13 15 - - - - - - - 18.9 1013.8 -
17/02:00am SW 13 14 - - - - - - - 19.1 1014.0 -
17/01:30am SW 12 13 - - - - - - - 19.3 1014.5 -
17/01:20am SW 13 16 - - - - - - - 19.4 1014.6 -
17/01:10am WSW 14 17 - - - - - - - 19.5 1014.7 -
17/12:50am WSW 13 15 - - - - - - - 19.6 1015.0 -
17/12:40am WSW 12 14 - - - - - - - 19.5 1015.0 -
17/12:30am WSW 11 13 - - - - - - - 19.5 1015.1 -
17/12:20am WSW 11 13 - - - - - - - 19.5 1015.1 -
17/12:10am WSW 11 13 - - - - - - - 19.6 1015.1 -
17/12:00am WSW 12 14 - - - - - - - 19.7 1015.2 -
 
Date/Time
EDT
Wind Sea
Height
m
Swell Vis
km
Cloud Weather Temp
°C
Press
hPa
Rain since
9am
mm
Dir  Spd
kts
Gust
kts
Height
m
Period
s
Dir
16/11:50pm W 12 13 - - - - - - - 19.8 1015.3 -
16/11:40pm W 12 13 - - - - - - - 19.8 1015.3 -
16/11:30pm W 11 12 - - - - - - - 19.9 1015.3 -
16/11:00pm WNW 9 11 - - - - - - - 20.1 1015.3 -
16/10:50pm W 9 10 - - - - - - - 20.1 1015.3 -
16/10:40pm W 9 10 - - - - - - - 20.2 1015.3 -
16/10:30pm W 7 9 - - - - - - - 20.3 1015.3 -
16/10:20pm WNW 6 7 - - - - - - - 20.3 1015.2 -
16/10:10pm W 6 7 - - - - - - - 20.4 1015.1 -
16/10:00pm W 5 7 - - - - - - - 20.5 1015.0 -
16/09:50pm W 6 7 - - - - - - - 20.6 1015.1 -
16/09:40pm WSW 7 8 - - - - - - - 20.6 1014.9 -
16/09:30pm WSW 6 7 - - - - - - - 20.7 1014.8 -
16/09:20pm WSW 6 7 - - - - - - - 20.8 1014.8 -
16/09:10pm WSW 6 7 - - - - - - - 20.8 1014.7 -
16/08:50pm WSW 4 5 - - - - - - - 20.9 1014.5 -
16/08:30pm WSW 3 3 - - - - - - - 21.0 1014.4 -
16/08:20pm WSW 2 4 - - - - - - - 21.0 1014.4 -
16/08:10pm WSW 2 3 - - - - - - - 21.0 1014.3 -
16/08:00pm WSW 1 2 - - - - - - - 21.0 1014.2 -
16/07:40pm SSW 1 2 - - - - - - - 20.7 1014.1 -
16/07:30pm SSW 2 3 - - - - - - - 20.5 1014.1 -
16/07:20pm SSW 3 4 - - - - - - - 20.4 1014.0 -
16/07:10pm SSW 3 4 - - - - - - - 20.3 1014.1 -
16/07:00pm SSW 4 5 - - - - - - - 20.3 1014.2 -
16/06:50pm S 5 6 - - - - - - - 20.1 1014.2 -
16/06:40pm S 5 6 - - - - - - - 20.1 1014.2 -
16/06:30pm SSE 3 5 - - - - - - - 20.0 1014.2 -
16/06:20pm SSE 4 5 - - - - - - - 20.0 1014.1 -
16/06:10pm SSE 3 5 - - - - - - - 19.9 1014.1 -
16/06:00pm SSE 4 6 - - - - - - - 20.0 1014.1 -
16/05:50pm SSE 5 6 - - - - - - - 20.0 1014.1 -
16/05:40pm SSE 4 6 - - - - - - - 20.0 1014.2 -
16/05:30pm SSE 4 6 - - - - - - - 19.9 1014.2 -
16/05:20pm SSE 4 6 - - - - - - - 19.9 1014.2 -
16/05:10pm SSE 6 8 - - - - - - - 19.7 1014.2 -
16/05:00pm SSE 6 7 - - - - - - - 19.7 1014.3 -
16/04:40pm SSE 4 6 - - - - - - - 19.8 1014.6 -
16/04:20pm SSE 2 4 - - - - - - - 19.8 1014.9 -
16/04:10pm SE 1 2 - - - - - - - 20.0 1015.0 -
16/03:50pm S 1 2 - - - - - - - 20.6 1015.3 -
16/03:40pm SW 1 2 - - - - - - - 21.1 1015.5 -
16/03:00pm NW 1 2 - - - - - - - 21.1 1015.9 -
16/02:40pm N 2 5 - - - - - - - 21.4 1016.1 -
16/02:30pm NNE 2 4 - - - - - - - 21.6 1016.1 -
16/02:20pm NNE 3 5 - - - - - - - 21.7 1016.2 -
16/02:10pm NNE 3 4 - - - - - - - 21.7 1016.4 -
16/02:00pm NNE 3 4 - - - - - - - 22.0 1016.5 -
16/01:50pm NNE 4 5 - - - - - - - 22.1 1016.6 -
16/12:30pm NNE 9 10 - - - - - - - 22.4 1017.8 -
16/12:20pm NNE 9 10 - - - - - - - 22.4 1017.8 -
16/12:10pm NE 10 11 - - - - - - - 22.4 1017.8 -
16/12:00pm NE 10 11 - - - - - - - 22.3 1017.8 -
16/11:50am NE 11 12 - - - - - - - 22.2 1017.8 -
16/11:40am NE 12 14 - - - - - - - 22.2 1017.8 -
16/11:30am NE 12 13 - - - - - - - 22.0 1017.8 -
16/11:20am NE 12 14 - - - - - - - 21.9 1017.9 -
16/11:00am NE 13 14 - - - - - - - 21.4 1018.1 -
16/10:50am NE 12 13 - - - - - - - 21.9 1018.2 -
16/10:40am NE 12 14 - - - - - - - 22.2 1018.3 -
16/10:30am NNE 14 15 - - - - - - - 21.9 1018.5 -
16/10:20am NE 15 18 - - - - - - - 21.5 1018.5 -
16/09:50am NE 20 22 - - - - - - - 20.9 1018.6 -
16/09:40am NE 21 23 - - - - - - - 20.5 1018.5 -
16/09:30am NE 21 24 - - - - - - - 20.5 1018.3 -
16/09:20am NE 21 24 - - - - - - - 20.7 1018.3 -
16/09:10am NE 22 25 - - - - - - - 20.7 1018.3 -
16/08:50am ENE 21 23 - - - - - - - 20.5 1018.4 -
16/06:30am ENE 17 20 - - - - - - - 19.6 1018.9 -
16/05:50am ENE 14 19 - - - - - - - 19.6 1019.2 -
16/05:40am ENE 15 18 - - - - - - - 19.6 1019.3 -
16/05:30am ENE 15 20 - - - - - - - 19.5 1019.3 -
16/05:20am ENE 15 19 - - - - - - - 19.5 1019.5 -
16/05:10am ENE 13 15 - - - - - - - 19.5 1019.6 -
16/03:00am ENE 12 15 - - - - - - - 19.0 1021.2 -
16/02:00am ENE 11 13 - - - - - - - 19.0 1022.0 -
16/12:20am ENE 10 14 - - - - - - - 18.7 1022.8 -
 
Date/Time
EDT
Wind Sea
Height
m
Swell Vis
km
Cloud Weather Temp
°C
Press
hPa
Rain since
9am
mm
Dir  Spd
kts
Gust
kts
Height
m
Period
s
Dir
15/10:40pm E 9 11 - - - - - - - 18.3 1023.3 -
15/10:30pm E 11 13 - - - - - - - 18.3 1023.2 -
15/10:20pm E 10 12 - - - - - - - 18.3 1023.2 -
15/10:10pm E 10 13 - - - - - - - 18.2 1023.0 -
15/10:00pm E 11 13 - - - - - - - 18.2 1022.9 -
15/09:40pm E 10 12 - - - - - - - 18.2 1022.8 -
15/09:30pm E 10 13 - - - - - - - 18.2 1022.8 -
15/09:20pm E 10 12 - - - - - - - 18.2 1022.7 -
15/09:10pm E 10 12 - - - - - - - 18.1 1022.7 -
15/09:00pm E 10 12 - - - - - - - 18.1 1022.8 -
15/08:50pm E 8 11 - - - - - - - 18.2 1022.7 -
15/08:10pm ESE 10 12 - - - - - - - 18.0 1022.4 -
15/08:00pm ESE 10 13 - - - - - - - 18.0 1022.5 -
15/07:50pm ESE 11 13 - - - - - - - 18.0 1022.4 -
15/07:40pm ESE 11 13 - - - - - - - 18.0 1022.5 -
15/07:30pm ESE 11 13 - - - - - - - 17.9 1022.4 -
15/07:20pm ESE 11 13 - - - - - - - 17.9 1022.5 -
15/07:10pm ESE 11 13 - - - - - - - 17.9 1022.5 -
15/07:00pm SE 9 12 - - - - - - - 17.9 1022.5 -
15/06:50pm SE 9 12 - - - - - - - 17.8 1022.6 -
15/06:30pm SE 9 12 - - - - - - - 17.8 1022.6 -
15/06:20pm SE 8 11 - - - - - - - 17.8 1022.8 -
15/06:10pm SE 8 11 - - - - - - - 17.8 1022.7 -
15/06:00pm SSE 7 10 - - - - - - - 17.8 1022.8 -
15/05:50pm SE 8 10 - - - - - - - 17.8 1022.8 -
15/05:40pm SSE 8 10 - - - - - - - 17.8 1022.8 -
15/05:30pm SE 8 11 - - - - - - - 17.8 1022.8 -
15/04:20pm SSE 4 7 - - - - - - - 17.8 1023.2 -
15/04:10pm SSE 5 8 - - - - - - - 17.8 1023.3 -
15/04:00pm SSE 6 7 - - - - - - - 17.8 1023.4 -
15/03:50pm SSE 5 8 - - - - - - - 17.9 1023.5 -
15/03:40pm S 5 7 - - - - - - - 17.9 1023.6 -
15/03:30pm S 6 8 - - - - - - - 18.0 1023.6 -
15/03:20pm S 7 8 - - - - - - - 18.2 1023.7 -
15/03:00pm SSW 7 8 - - - - - - - 18.7 1023.9 -
15/02:50pm SSW 5 8 - - - - - - - 19.1 1023.9 -
15/02:40pm SSW 5 6 - - - - - - - 19.2 1023.9 -
15/02:30pm SSW 5 7 - - - - - - - 19.4 1024.0 -
15/01:20pm SW 8 9 - - - - - - - 21.0 1024.5 -
15/01:10pm SW 8 10 - - - - - - - 21.1 1024.5 -
15/01:00pm SW 8 10 - - - - - - - 21.3 1024.6 -
15/12:50pm SW 8 10 - - - - - - - 21.1 1024.7 -
15/12:40pm SW 8 9 - - - - - - - 21.1 1024.6 -
15/12:30pm SW 8 10 - - - - - - - 21.2 1024.6 -
15/12:20pm SW 7 8 - - - - - - - 21.2 1024.6 -
15/12:10pm SW 6 8 - - - - - - - 21.2 1024.5 -
15/12:00pm SW 6 8 - - - - - - - 21.2 1024.4 -
15/11:50am SW 7 9 - - - - - - - 21.1 1024.4 -

Other Formats:

Comma delimited format used in spreadsheet applications
http://www.bom.gov.au/fwo/IDV60701/IDV60701.55039.axf

JavaScript Object Notation format (JSON) in row-major order
http://www.bom.gov.au/fwo/IDV60701/IDV60701.55039.json